createdAt,value
2023-01-23T00:01:16.305Z,10.73
2023-01-23T00:03:43.051Z,9.18
2023-01-23T00:06:15.621Z,10.15
2023-01-23T00:08:43.785Z,10.63
2023-01-23T00:11:16.628Z,10.07
2023-01-23T00:13:43.355Z,10.70
2023-01-23T00:16:13.086Z,9.25
2023-01-23T00:18:40.097Z,10.57
2023-01-23T00:21:09.602Z,9.73
2023-01-23T00:23:36.984Z,10.13
2023-01-23T00:26:08.589Z,10.05
2023-01-23T00:28:35.244Z,9.52
2023-01-23T00:31:12.899Z,9.80
2023-01-23T00:33:40.519Z,9.32
2023-01-23T00:36:07.704Z,10.18
2023-01-23T00:38:34.717Z,9.93
2023-01-23T00:41:02.246Z,10.65
2023-01-23T00:43:29.735Z,10.15
2023-01-23T00:45:56.933Z,9.57
2023-01-23T00:48:24.054Z,9.05
2023-01-23T00:50:50.888Z,9.52
2023-01-23T00:53:17.611Z,10.13
2023-01-23T00:55:44.394Z,9.27
2023-01-23T00:58:11.216Z,9.88
2023-01-23T01:00:38.823Z,9.38
2023-01-23T01:03:06.203Z,8.65
2023-01-23T01:05:33.477Z,8.82
2023-01-23T01:08:00.308Z,9.05
2023-01-23T01:10:29.433Z,9.50
2023-01-23T01:12:57.419Z,9.75
2023-01-23T01:15:24.229Z,9.30
2023-01-23T01:17:53.631Z,8.65
2023-01-23T01:20:23.553Z,8.45
2023-01-23T01:22:50.712Z,9.43
2023-01-23T01:25:17.788Z,9.38
2023-01-23T01:27:45.074Z,9.65
2023-01-23T01:30:13.937Z,9.10
2023-01-23T01:32:42.414Z,9.02
2023-01-23T01:35:10.157Z,8.70
2023-01-23T01:37:38.742Z,8.45
2023-01-23T01:40:07.841Z,7.28
2023-01-23T01:42:43.897Z,8.23
2023-01-23T01:45:48.312Z,8.68
2023-01-23T01:48:15.577Z,8.27
2023-01-23T01:50:43.222Z,9.68
2023-01-23T01:53:11.455Z,9.02
2023-01-23T01:55:39.521Z,8.63
2023-01-23T01:58:06.908Z,9.18
2023-01-23T02:00:33.769Z,9.20
2023-01-23T02:03:03.418Z,8.00
2023-01-23T02:05:47.294Z,9.50
2023-01-23T02:08:19.033Z,9.50
2023-01-23T02:10:47.151Z,9.45
2023-01-23T02:13:30.405Z,9.30
2023-01-23T02:15:59.707Z,8.75
2023-01-23T02:18:28.693Z,9.60
2023-01-23T02:20:57.777Z,8.10
2023-01-23T02:23:50.559Z,9.10
2023-01-23T02:26:27.803Z,8.57
2023-01-23T02:28:55.848Z,9.23
2023-01-23T02:31:26.911Z,9.73
2023-01-23T02:33:56.362Z,10.05
2023-01-23T02:36:26.965Z,9.35
2023-01-23T02:39:05.770Z,9.23
2023-01-23T02:41:39.718Z,9.40
2023-01-23T02:44:15.738Z,9.27
2023-01-23T02:46:46.230Z,9.07
2023-01-23T02:49:13.089Z,9.05
2023-01-23T02:51:39.738Z,9.50
2023-01-23T02:54:07.815Z,9.55
2023-01-23T02:56:34.591Z,9.35
2023-01-23T02:59:19.790Z,8.85
2023-01-23T03:01:46.609Z,9.57
2023-01-23T03:04:13.320Z,8.35
2023-01-23T03:06:40.090Z,9.20
2023-01-23T03:09:11.230Z,9.95
2023-01-23T03:11:40.773Z,9.18
2023-01-23T03:14:10.825Z,8.80
2023-01-23T03:16:38.594Z,9.30
2023-01-23T03:19:09.042Z,9.32
2023-01-23T03:21:40.385Z,8.82
2023-01-23T03:24:13.170Z,9.27
2023-01-23T03:26:42.152Z,8.65
2023-01-23T03:29:36.690Z,9.15
2023-01-23T03:32:04.663Z,7.72
2023-01-23T03:34:32.109Z,8.23
2023-01-23T03:37:00.309Z,9.10
2023-01-23T03:39:47.512Z,8.90
2023-01-23T03:42:15.133Z,9.07
2023-01-23T03:44:41.927Z,8.85
2023-01-23T03:47:08.968Z,8.40
2023-01-23T03:49:38.883Z,9.10
2023-01-23T03:52:05.803Z,8.88
2023-01-23T03:54:33.004Z,8.30
2023-01-23T03:57:01.081Z,7.97
2023-01-23T03:59:48.616Z,7.65
2023-01-23T04:02:18.097Z,9.70
2023-01-23T04:04:45.223Z,8.75
2023-01-23T04:07:12.069Z,8.23
2023-01-23T04:09:41.200Z,8.40
2023-01-23T04:12:08.071Z,8.35
2023-01-23T04:14:38.958Z,8.23
2023-01-23T04:17:07.666Z,7.55
2023-01-23T04:19:35.237Z,7.15
2023-01-23T04:22:02.947Z,7.07
2023-01-23T04:24:34.754Z,6.45
2023-01-23T04:27:01.491Z,6.78
2023-01-23T04:29:28.913Z,6.78
2023-01-23T04:31:55.648Z,6.78
2023-01-23T04:34:22.598Z,6.45
2023-01-23T04:36:51.218Z,6.38
2023-01-23T04:39:17.932Z,6.18
2023-01-23T04:41:48.236Z,6.57
2023-01-23T04:44:37.603Z,6.28
2023-01-23T04:47:24.238Z,6.53
2023-01-23T04:49:51.649Z,6.20
2023-01-23T04:52:18.769Z,6.40
2023-01-23T04:54:53.070Z,5.55
2023-01-23T04:57:19.930Z,6.55
2023-01-23T04:59:48.379Z,5.63
2023-01-23T05:02:15.807Z,6.30
2023-01-23T05:04:44.115Z,6.20
2023-01-23T05:07:12.179Z,5.85
2023-01-23T05:09:43.319Z,6.10
2023-01-23T05:12:13.518Z,6.43
2023-01-23T05:14:41.729Z,6.40
2023-01-23T05:17:08.652Z,7.28
2023-01-23T05:19:40.199Z,7.15
2023-01-23T05:22:07.349Z,6.32
2023-01-23T05:24:34.231Z,6.20
2023-01-23T05:27:00.970Z,5.85
2023-01-23T05:29:30.637Z,6.10
2023-01-23T05:32:11.925Z,5.90
2023-01-23T05:34:38.639Z,6.53
2023-01-23T05:37:16.205Z,6.57
2023-01-23T05:39:46.664Z,5.97
2023-01-23T05:42:13.403Z,6.35
2023-01-23T05:44:40.059Z,7.57
2023-01-23T05:47:14.401Z,6.38
2023-01-23T05:49:41.192Z,6.85
2023-01-23T05:52:07.951Z,7.53
2023-01-23T05:54:34.659Z,7.22
2023-01-23T05:57:02.395Z,7.13
2023-01-23T05:59:38.060Z,7.68
2023-01-23T06:02:23.211Z,7.75
2023-01-23T06:05:19.470Z,7.15
2023-01-23T06:08:00.668Z,6.50
2023-01-23T06:10:27.368Z,7.40
2023-01-23T06:12:54.005Z,6.90
2023-01-23T06:15:20.690Z,7.38
2023-01-23T06:17:47.540Z,7.40
2023-01-23T06:20:14.607Z,7.55
2023-01-23T06:22:45.288Z,7.38
2023-01-23T06:25:13.469Z,7.53
2023-01-23T06:27:41.244Z,8.40
2023-01-23T06:30:10.002Z,9.18
2023-01-23T06:32:40.371Z,7.70
2023-01-23T06:35:09.978Z,7.45
2023-01-23T06:37:39.952Z,6.90
2023-01-23T06:40:13.166Z,8.32
2023-01-23T06:42:43.330Z,7.82
2023-01-23T06:45:11.227Z,7.97
2023-01-23T06:47:38.460Z,7.85
2023-01-23T06:50:05.564Z,7.95
2023-01-23T06:52:36.756Z,8.95
2023-01-23T06:55:04.991Z,7.45
2023-01-23T06:57:33.558Z,7.43
2023-01-23T07:00:00.354Z,8.50
2023-01-23T07:02:27.341Z,7.60
2023-01-23T07:04:55.021Z,8.07
2023-01-23T07:07:21.755Z,8.00
2023-01-23T07:09:49.972Z,8.00
2023-01-23T07:12:23.379Z,7.97
2023-01-23T07:14:50.164Z,8.02
2023-01-23T07:17:25.238Z,8.15
2023-01-23T07:19:52.117Z,8.80
2023-01-23T07:22:21.734Z,8.30
2023-01-23T07:24:48.784Z,8.82
2023-01-23T07:27:16.019Z,9.20
2023-01-23T07:29:43.271Z,8.27
2023-01-23T07:32:11.146Z,9.20
2023-01-23T07:34:38.265Z,9.85
2023-01-23T07:37:05.155Z,10.25
2023-01-23T07:39:32.073Z,10.60
2023-01-23T07:41:58.743Z,8.70
2023-01-23T07:44:28.089Z,8.85
2023-01-23T07:46:54.849Z,8.98
2023-01-23T07:49:21.513Z,9.15
2023-01-23T07:51:48.185Z,10.35
2023-01-23T07:54:14.836Z,8.85
2023-01-23T07:56:41.505Z,9.00
2023-01-23T07:59:08.334Z,9.43
2023-01-23T08:01:35.049Z,9.73
2023-01-23T08:04:01.895Z,8.98
2023-01-23T08:06:28.689Z,10.05
2023-01-23T08:08:55.373Z,8.82
2023-01-23T08:11:23.844Z,9.27
2023-01-23T08:13:50.903Z,8.60
2023-01-23T08:16:17.728Z,9.73
2023-01-23T08:18:44.403Z,9.52
2023-01-23T08:21:11.459Z,8.32
2023-01-23T08:23:38.969Z,8.98
2023-01-23T08:26:08.655Z,9.63
2023-01-23T08:28:36.003Z,9.38
2023-01-23T08:31:06.819Z,8.02
2023-01-23T08:33:34.701Z,9.10
2023-01-23T08:36:01.987Z,8.95
2023-01-23T08:38:29.033Z,8.32
2023-01-23T08:41:01.223Z,9.00
2023-01-23T08:43:29.791Z,8.80
2023-01-23T08:45:58.411Z,9.15
2023-01-23T08:48:26.617Z,8.18
2023-01-23T08:51:03.625Z,9.45
2023-01-23T08:53:31.198Z,9.05
2023-01-23T08:56:05.132Z,9.23
2023-01-23T08:58:32.002Z,8.63
2023-01-23T09:00:59.017Z,8.10
2023-01-23T09:03:26.438Z,8.15
2023-01-23T09:05:53.371Z,8.70
2023-01-23T09:08:20.328Z,9.10
2023-01-23T09:10:47.017Z,7.97
2023-01-23T09:13:13.922Z,9.20
2023-01-23T09:15:40.773Z,9.10
2023-01-23T09:18:07.556Z,8.60
2023-01-23T09:20:34.351Z,9.32
2023-01-23T09:23:01.140Z,8.63
2023-01-23T09:25:27.845Z,8.82
2023-01-23T09:27:54.539Z,9.23
2023-01-23T09:30:21.557Z,8.25
2023-01-23T09:32:48.465Z,8.77
2023-01-23T09:35:15.202Z,8.90
2023-01-23T09:38:00.184Z,8.07
2023-01-23T09:40:36.631Z,8.30
2023-01-23T09:43:29.662Z,8.18
2023-01-23T09:46:25.777Z,8.65
2023-01-23T09:49:02.402Z,8.00
2023-01-23T09:51:44.258Z,8.18
2023-01-23T09:54:44.371Z,7.70
2023-01-23T09:57:22.819Z,8.32
2023-01-23T10:00:13.046Z,8.02
2023-01-23T10:02:43.428Z,8.00
2023-01-23T10:05:18.278Z,8.50
2023-01-23T10:07:52.492Z,9.10
2023-01-23T10:10:26.695Z,8.52
2023-01-23T10:13:07.848Z,8.05
2023-01-23T10:16:15.996Z,8.82
2023-01-23T10:18:48.729Z,8.48
2023-01-23T10:21:32.756Z,8.93
2023-01-23T10:24:05.184Z,8.82
2023-01-23T10:26:38.359Z,8.50
2023-01-23T10:29:32.392Z,9.25
2023-01-23T10:32:02.410Z,8.13
2023-01-23T10:34:52.346Z,9.32
2023-01-23T10:37:42.555Z,8.80
2023-01-23T10:40:16.630Z,9.63
2023-01-23T10:42:43.345Z,9.32
2023-01-23T10:45:18.809Z,8.60
2023-01-23T10:47:54.607Z,9.48
2023-01-23T10:50:39.123Z,8.82
2023-01-23T10:53:08.653Z,8.48
2023-01-23T10:55:35.535Z,8.55
2023-01-23T10:58:03.093Z,9.23
2023-01-23T11:00:45.257Z,8.10
2023-01-23T11:03:26.941Z,8.45
2023-01-23T11:05:55.027Z,8.07
2023-01-23T11:08:53.203Z,8.95
2023-01-23T11:11:23.808Z,9.30
2023-01-23T11:14:10.688Z,8.10
2023-01-23T11:16:38.155Z,9.45
2023-01-23T11:19:07.660Z,9.20
2023-01-23T11:21:50.184Z,8.23
2023-01-23T11:24:38.463Z,9.48
2023-01-23T11:27:18.677Z,9.35
2023-01-23T11:30:27.153Z,9.25
2023-01-23T11:33:11.475Z,9.63
2023-01-23T11:36:04.738Z,9.05
2023-01-23T11:38:52.534Z,9.40
2023-01-23T11:41:21.012Z,9.52
2023-01-23T11:43:47.859Z,9.38
2023-01-23T11:46:38.466Z,8.93
2023-01-23T11:49:08.267Z,10.32
2023-01-23T11:52:05.675Z,10.45
2023-01-23T11:55:02.890Z,9.70
2023-01-23T11:57:35.331Z,9.48
2023-01-23T12:00:19.428Z,9.95
2023-01-23T12:03:10.893Z,9.57
2023-01-23T12:09:12.137Z,10.15
2023-01-23T12:12:01.028Z,10.45
2023-01-23T12:14:38.503Z,10.55
2023-01-23T12:17:53.257Z,10.13
2023-01-23T12:20:26.250Z,10.15
2023-01-23T12:23:01.294Z,10.38
2023-01-23T12:25:38.885Z,10.65
2023-01-23T12:28:32.891Z,10.02
2023-01-23T12:31:11.456Z,10.00
2023-01-23T12:34:02.066Z,10.40
2023-01-23T12:37:10.200Z,12.93
2023-01-23T12:40:09.996Z,12.15
2023-01-23T12:42:45.653Z,12.05
2023-01-23T12:45:20.871Z,10.27
2023-01-23T12:48:00.944Z,10.00
2023-01-23T12:50:48.399Z,10.45
2023-01-23T12:53:22.060Z,9.27
2023-01-23T12:56:10.336Z,9.52
2023-01-23T12:58:47.230Z,10.27
2023-01-23T13:01:42.290Z,9.75
2023-01-23T13:04:26.669Z,10.32
2023-01-23T13:07:03.140Z,11.73
2023-01-23T13:09:55.030Z,11.75
2023-01-23T13:12:25.104Z,11.40
2023-01-23T13:15:22.686Z,11.25
2023-01-23T13:17:59.918Z,11.02
2023-01-23T13:20:50.488Z,11.48
2023-01-23T13:23:29.590Z,10.90
2023-01-23T13:26:19.389Z,10.82
2023-01-23T13:28:50.372Z,10.60
2023-01-23T13:31:40.937Z,10.57
2023-01-23T13:34:30.953Z,11.40
2023-01-23T13:37:26.277Z,12.02
2023-01-23T13:40:17.520Z,10.60
2023-01-23T13:42:44.753Z,11.35
2023-01-23T13:45:24.390Z,10.18
2023-01-23T14:22:17.421Z,10.93
2023-01-23T14:24:45.335Z,10.35
2023-01-23T14:27:36.772Z,10.57
2023-01-23T14:30:19.081Z,9.77
2023-01-23T14:32:46.266Z,10.52
2023-01-23T14:35:27.128Z,11.20
2023-01-23T14:37:56.563Z,10.10
2023-01-23T14:40:28.138Z,11.05
2023-01-23T14:43:01.901Z,11.98
2023-01-23T14:45:33.056Z,11.00
2023-01-23T14:48:06.492Z,9.93
2023-01-23T14:50:33.952Z,10.45
2023-01-23T14:53:03.604Z,10.18
2023-01-23T14:55:31.544Z,11.43
2023-01-23T14:57:59.867Z,12.38
2023-01-23T15:00:28.106Z,11.63
2023-01-23T15:02:56.193Z,11.63
2023-01-23T15:05:28.091Z,12.68
2023-01-23T15:08:04.143Z,13.13
2023-01-23T15:10:41.318Z,13.65
2023-01-23T15:13:41.331Z,12.88
2023-01-23T15:16:15.791Z,12.15
2023-01-23T15:19:16.287Z,14.48
2023-01-23T15:21:43.025Z,12.65
2023-01-23T15:24:09.729Z,12.63
2023-01-23T15:26:38.017Z,12.50
2023-01-23T15:29:10.606Z,14.10
2023-01-23T15:31:40.213Z,12.05
2023-01-23T15:34:16.233Z,12.10
2023-01-23T15:36:48.726Z,11.70
2023-01-23T15:39:35.736Z,13.35
2023-01-23T15:42:13.658Z,11.80
2023-01-23T15:44:42.033Z,12.25
2023-01-23T15:47:09.096Z,10.27
2023-01-23T15:49:37.901Z,10.57
2023-01-23T15:52:24.673Z,11.27
2023-01-23T15:54:54.944Z,11.63
2023-01-23T15:57:21.913Z,11.35
2023-01-23T15:59:48.993Z,11.25
2023-01-23T16:02:30.129Z,10.90
2023-01-23T16:04:58.601Z,12.23
2023-01-23T16:07:30.972Z,12.05
2023-01-23T16:09:57.762Z,19.33
2023-01-23T16:12:28.650Z,13.25
2023-01-23T16:14:56.644Z,12.48
2023-01-23T16:17:23.550Z,12.30
2023-01-23T16:19:50.692Z,12.15
2023-01-23T16:22:29.282Z,12.20
2023-01-23T16:24:57.576Z,13.65
2023-01-23T16:27:27.339Z,13.95
2023-01-23T16:29:55.411Z,12.63
2023-01-23T16:32:22.273Z,13.20
2023-01-23T16:34:49.049Z,12.32
2023-01-23T16:37:17.386Z,12.57
2023-01-23T16:39:46.753Z,11.57
2023-01-23T16:42:23.581Z,11.75
2023-01-23T16:44:51.114Z,12.48
2023-01-23T16:47:17.842Z,11.90
2023-01-23T16:49:52.577Z,11.95
2023-01-23T16:52:21.693Z,13.20
2023-01-23T16:54:51.269Z,13.00
2023-01-23T16:57:20.124Z,12.15
2023-01-23T16:59:47.976Z,13.30
2023-01-23T17:02:31.219Z,13.27
2023-01-23T17:04:57.965Z,12.27
2023-01-23T17:07:24.671Z,12.80
2023-01-23T17:09:51.770Z,13.15
2023-01-23T17:12:28.422Z,13.10
2023-01-23T17:14:55.910Z,11.98
2023-01-23T17:17:33.286Z,14.07
2023-01-23T17:20:01.643Z,15.40
2023-01-23T17:22:30.524Z,14.90
2023-01-23T17:24:57.443Z,13.93
2023-01-23T17:27:24.275Z,14.20
2023-01-23T17:29:51.134Z,13.20
2023-01-23T17:32:32.916Z,13.98
2023-01-23T17:35:02.956Z,12.82
2023-01-23T17:37:30.221Z,13.90
2023-01-23T17:39:56.903Z,15.77
2023-01-23T17:42:23.595Z,15.50
2023-01-23T17:44:50.560Z,15.98
2023-01-23T17:47:17.791Z,14.75
2023-01-23T17:49:51.110Z,15.48
2023-01-23T17:52:18.060Z,14.07
2023-01-23T17:54:44.748Z,15.65
2023-01-23T17:57:11.454Z,16.10
2023-01-23T17:59:38.206Z,16.55
2023-01-23T18:02:27.755Z,16.48
2023-01-23T18:04:55.126Z,16.88
2023-01-23T18:07:21.828Z,16.27
2023-01-23T18:09:48.472Z,16.40
2023-01-23T18:12:23.336Z,16.17
2023-01-23T18:15:03.485Z,14.80
2023-01-23T18:17:49.536Z,15.23
2023-01-23T18:20:22.236Z,15.25
2023-01-23T18:22:49.357Z,15.52
2023-01-23T18:25:18.321Z,15.82
2023-01-23T18:27:50.400Z,15.93
2023-01-23T18:30:34.047Z,15.50
2023-01-23T18:33:19.103Z,16.20
2023-01-23T18:36:04.839Z,15.50
2023-01-23T18:38:57.067Z,14.95
2023-01-23T18:41:28.229Z,15.38
2023-01-23T18:44:14.556Z,15.63
2023-01-23T18:46:41.458Z,15.65
2023-01-23T18:49:13.435Z,16.65
2023-01-23T18:52:06.239Z,16.58
2023-01-23T18:54:51.691Z,15.73
2023-01-23T18:57:35.291Z,16.20
2023-01-23T19:00:16.890Z,17.20
2023-01-23T19:02:51.785Z,17.10
2023-01-23T19:05:26.128Z,16.63
2023-01-23T19:07:53.172Z,15.20
2023-01-23T19:10:23.099Z,16.15
2023-01-23T19:13:13.258Z,14.90
2023-01-23T19:16:26.601Z,16.35
2023-01-23T19:19:25.320Z,17.45
2023-01-23T19:21:52.160Z,15.45
2023-01-23T19:24:19.871Z,15.98
2023-01-23T19:26:46.991Z,14.70
2023-01-23T19:29:22.009Z,16.17
2023-01-23T19:32:04.241Z,16.27
2023-01-23T19:34:32.054Z,16.05
2023-01-23T19:36:58.731Z,16.20
2023-01-23T19:39:25.445Z,15.90
2023-01-23T19:41:53.187Z,16.95
2023-01-23T19:44:22.702Z,16.77
2023-01-23T19:46:49.419Z,16.77
2023-01-23T19:49:16.228Z,17.15
2023-01-23T19:51:43.479Z,16.27
2023-01-23T19:54:13.150Z,17.33
2023-01-23T19:56:40.634Z,15.95
2023-01-23T19:59:07.910Z,15.80
2023-01-23T20:01:40.357Z,16.20
2023-01-23T20:04:18.278Z,15.20
2023-01-23T20:06:45.626Z,14.50
2023-01-23T20:09:15.922Z,15.93
2023-01-23T20:11:43.504Z,14.20
2023-01-23T20:14:10.664Z,15.52
2023-01-23T20:16:40.223Z,14.65
2023-01-23T20:19:07.324Z,15.75
2023-01-23T20:21:34.119Z,14.45
2023-01-23T20:24:00.910Z,14.75
2023-01-23T20:26:27.644Z,14.95
2023-01-23T20:28:54.430Z,15.18
2023-01-23T20:31:21.894Z,15.05
2023-01-23T20:33:48.763Z,14.38
2023-01-23T20:36:16.036Z,14.80
2023-01-23T20:38:43.132Z,16.48
2023-01-23T20:41:18.954Z,16.60
2023-01-23T20:43:46.082Z,18.33
2023-01-23T20:46:14.729Z,19.02
2023-01-23T20:48:46.261Z,17.60
2023-01-23T20:51:15.365Z,19.67
2023-01-23T20:53:42.729Z,16.38
2023-01-23T20:56:15.743Z,19.02
2023-01-23T20:59:03.320Z,20.48
2023-01-23T21:01:53.293Z,17.15
2023-01-23T21:04:21.068Z,18.30
2023-01-23T21:06:47.761Z,15.57
2023-01-23T21:09:14.540Z,17.92
2023-01-23T21:11:41.190Z,18.58
2023-01-23T21:14:08.927Z,19.02
2023-01-23T21:16:36.029Z,20.98
2023-01-23T21:19:02.878Z,21.52
2023-01-23T21:21:29.658Z,19.45
2023-01-23T21:23:56.450Z,16.95
2023-01-23T21:26:25.276Z,17.75
2023-01-23T21:28:53.937Z,18.02
2023-01-23T21:31:23.895Z,18.83
2023-01-23T21:33:51.008Z,14.57
2023-01-23T21:36:20.980Z,17.08
2023-01-23T21:38:48.135Z,15.95
2023-01-23T21:41:15.027Z,18.08
2023-01-23T21:43:41.706Z,17.95
2023-01-23T21:46:08.872Z,17.08
2023-01-23T21:48:36.307Z,17.45
2023-01-23T21:51:15.897Z,15.93
2023-01-23T21:53:44.093Z,14.73
2023-01-23T21:56:12.737Z,16.20
2023-01-23T21:58:39.803Z,14.93
2023-01-23T22:01:30.901Z,16.33
2023-01-23T22:04:09.407Z,14.63
2023-01-23T22:06:38.124Z,16.13
2023-01-23T22:09:05.522Z,14.52
2023-01-23T22:11:32.357Z,15.07
2023-01-23T22:13:59.211Z,13.73
2023-01-23T22:16:46.399Z,14.65
2023-01-23T22:19:24.216Z,13.57
2023-01-23T22:21:52.996Z,13.52
2023-01-23T22:24:19.825Z,14.38
2023-01-23T22:26:46.527Z,14.30
2023-01-23T22:31:56.186Z,14.43
2023-01-23T22:34:23.006Z,13.40
2023-01-23T22:36:49.701Z,14.05
2023-01-23T22:39:16.677Z,13.23
2023-01-23T22:41:47.786Z,12.25
2023-01-23T22:44:14.719Z,14.00
2023-01-23T22:46:41.444Z,12.88
2023-01-23T22:49:08.126Z,13.27
2023-01-23T22:51:34.796Z,14.02
2023-01-23T22:54:01.629Z,13.55
2023-01-23T22:56:29.225Z,14.88
2023-01-23T22:58:57.002Z,13.25
2023-01-23T23:01:26.856Z,13.88
2023-01-23T23:03:55.896Z,13.07
2023-01-23T23:06:22.578Z,13.50
2023-01-23T23:08:49.313Z,13.20
2023-01-23T23:11:27.623Z,14.10
2023-01-23T23:13:56.435Z,13.98
2023-01-23T23:16:26.128Z,13.77
2023-01-23T23:18:55.032Z,13.18
2023-01-23T23:21:25.122Z,12.68
2023-01-23T23:23:54.794Z,13.60
2023-01-23T23:26:21.519Z,12.70
2023-01-23T23:28:48.175Z,13.88
2023-01-23T23:31:14.931Z,13.40
2023-01-23T23:33:41.632Z,12.98
2023-01-23T23:36:08.672Z,12.63
2023-01-23T23:38:35.374Z,13.13
2023-01-23T23:41:08.011Z,11.25
2023-01-23T23:43:34.882Z,11.82
2023-01-23T23:46:03.601Z,11.45
2023-01-23T23:48:31.810Z,11.80
2023-01-23T23:51:03.116Z,12.38
2023-01-23T23:53:30.188Z,10.98
2023-01-23T23:55:57.194Z,12.13
2023-01-23T23:58:24.324Z,11.23
